sensor_id;sensor_type;location;lat;lon;timestamp;P1;durP1;ratioP1;P2;durP2;ratioP2
77520;SDS011;66633;47.628;19.158;2023-08-30T00:01:45;6.43;;;4.32;;
77520;SDS011;66633;47.628;19.158;2023-08-30T00:04:12;7.55;;;3.95;;
77520;SDS011;66633;47.628;19.158;2023-08-30T00:06:39;6.40;;;3.83;;
77520;SDS011;66633;47.628;19.158;2023-08-30T00:09:04;5.80;;;3.50;;
77520;SDS011;66633;47.628;19.158;2023-08-30T00:11:30;5.50;;;3.20;;
77520;SDS011;66633;47.628;19.158;2023-08-30T00:14:04;6.20;;;3.50;;
77520;SDS011;66633;47.628;19.158;2023-08-30T00:16:32;6.43;;;3.38;;
77520;SDS011;66633;47.628;19.158;2023-08-30T00:18:59;7.25;;;4.00;;
77520;SDS011;66633;47.628;19.158;2023-08-30T00:21:26;6.50;;;3.95;;
77520;SDS011;66633;47.628;19.158;2023-08-30T00:23:52;7.45;;;3.75;;
77520;SDS011;66633;47.628;19.158;2023-08-30T00:26:18;6.68;;;3.88;;
77520;SDS011;66633;47.628;19.158;2023-08-30T00:28:49;7.13;;;3.90;;
77520;SDS011;66633;47.628;19.158;2023-08-30T00:31:15;6.53;;;3.88;;
77520;SDS011;66633;47.628;19.158;2023-08-30T00:33:40;6.05;;;3.60;;
77520;SDS011;66633;47.628;19.158;2023-08-30T00:36:06;8.32;;;4.22;;
77520;SDS011;66633;47.628;19.158;2023-08-30T00:38:33;6.75;;;3.75;;
77520;SDS011;66633;47.628;19.158;2023-08-30T00:41:01;6.68;;;3.95;;
77520;SDS011;66633;47.628;19.158;2023-08-30T00:43:26;7.03;;;4.30;;
77520;SDS011;66633;47.628;19.158;2023-08-30T00:45:51;6.43;;;3.95;;
77520;SDS011;66633;47.628;19.158;2023-08-30T00:48:19;5.80;;;3.50;;
77520;SDS011;66633;47.628;19.158;2023-08-30T00:50:47;6.07;;;3.70;;
77520;SDS011;66633;47.628;19.158;2023-08-30T00:53:14;5.40;;;3.25;;
77520;SDS011;66633;47.628;19.158;2023-08-30T00:55:47;5.95;;;3.53;;
77520;SDS011;66633;47.628;19.158;2023-08-30T00:58:13;5.75;;;3.92;;
77520;SDS011;66633;47.628;19.158;2023-08-30T01:00:39;7.07;;;4.20;;
77520;SDS011;66633;47.628;19.158;2023-08-30T01:03:05;5.18;;;3.13;;
77520;SDS011;66633;47.628;19.158;2023-08-30T01:05:32;6.43;;;3.13;;
77520;SDS011;66633;47.628;19.158;2023-08-30T01:07:58;5.50;;;3.15;;
77520;SDS011;66633;47.628;19.158;2023-08-30T01:10:27;5.88;;;3.40;;
77520;SDS011;66633;47.628;19.158;2023-08-30T01:13:08;6.20;;;3.70;;
77520;SDS011;66633;47.628;19.158;2023-08-30T01:15:37;5.95;;;3.60;;
77520;SDS011;66633;47.628;19.158;2023-08-30T01:18:04;5.72;;;3.33;;
77520;SDS011;66633;47.628;19.158;2023-08-30T01:20:33;5.60;;;3.22;;
77520;SDS011;66633;47.628;19.158;2023-08-30T01:23:07;6.20;;;2.80;;
77520;SDS011;66633;47.628;19.158;2023-08-30T01:28:29;5.60;;;3.58;;
77520;SDS011;66633;47.628;19.158;2023-08-30T01:30:56;5.70;;;3.30;;
77520;SDS011;66633;47.628;19.158;2023-08-30T01:33:23;5.50;;;3.47;;
77520;SDS011;66633;47.628;19.158;2023-08-30T01:35:53;6.72;;;3.55;;
77520;SDS011;66633;47.628;19.158;2023-08-30T01:38:21;6.63;;;3.22;;
77520;SDS011;66633;47.628;19.158;2023-08-30T01:40:48;5.80;;;3.85;;
77520;SDS011;66633;47.628;19.158;2023-08-30T01:43:14;7.03;;;4.43;;
77520;SDS011;66633;47.628;19.158;2023-08-30T01:45:45;6.15;;;4.00;;
77520;SDS011;66633;47.628;19.158;2023-08-30T01:48:12;6.28;;;3.97;;
77520;SDS011;66633;47.628;19.158;2023-08-30T01:50:42;7.10;;;4.32;;
77520;SDS011;66633;47.628;19.158;2023-08-30T01:53:10;6.63;;;4.22;;
77520;SDS011;66633;47.628;19.158;2023-08-30T01:55:37;7.97;;;5.57;;
77520;SDS011;66633;47.628;19.158;2023-08-30T01:58:03;8.40;;;5.63;;
77520;SDS011;66633;47.628;19.158;2023-08-30T02:00:29;8.50;;;5.57;;
77520;SDS011;66633;47.628;19.158;2023-08-30T02:02:56;9.20;;;7.22;;
77520;SDS011;66633;47.628;19.158;2023-08-30T02:05:21;9.05;;;6.40;;
77520;SDS011;66633;47.628;19.158;2023-08-30T02:08:09;9.85;;;6.85;;
77520;SDS011;66633;47.628;19.158;2023-08-30T02:10:40;9.13;;;6.75;;
77520;SDS011;66633;47.628;19.158;2023-08-30T02:13:09;11.75;;;8.25;;
77520;SDS011;66633;47.628;19.158;2023-08-30T02:15:37;8.68;;;6.28;;
77520;SDS011;66633;47.628;19.158;2023-08-30T02:18:06;9.90;;;6.78;;
77520;SDS011;66633;47.628;19.158;2023-08-30T02:20:35;9.48;;;7.50;;
77520;SDS011;66633;47.628;19.158;2023-08-30T02:23:02;10.23;;;7.88;;
77520;SDS011;66633;47.628;19.158;2023-08-30T02:25:27;10.63;;;7.68;;
77520;SDS011;66633;47.628;19.158;2023-08-30T02:27:53;10.38;;;7.20;;
77520;SDS011;66633;47.628;19.158;2023-08-30T02:30:18;10.15;;;7.80;;
77520;SDS011;66633;47.628;19.158;2023-08-30T02:32:44;11.32;;;7.57;;
77520;SDS011;66633;47.628;19.158;2023-08-30T02:35:12;10.73;;;7.45;;
77520;SDS011;66633;47.628;19.158;2023-08-30T02:37:38;10.77;;;7.80;;
77520;SDS011;66633;47.628;19.158;2023-08-30T02:40:07;9.40;;;6.85;;
77520;SDS011;66633;47.628;19.158;2023-08-30T02:42:33;9.57;;;7.05;;
77520;SDS011;66633;47.628;19.158;2023-08-30T02:44:58;9.15;;;7.47;;
77520;SDS011;66633;47.628;19.158;2023-08-30T02:47:23;11.57;;;7.50;;
77520;SDS011;66633;47.628;19.158;2023-08-30T02:49:49;9.65;;;7.25;;
77520;SDS011;66633;47.628;19.158;2023-08-30T02:52:14;9.65;;;6.22;;
77520;SDS011;66633;47.628;19.158;2023-08-30T02:54:40;9.45;;;7.10;;
77520;SDS011;66633;47.628;19.158;2023-08-30T02:57:06;9.48;;;5.80;;
77520;SDS011;66633;47.628;19.158;2023-08-30T02:59:33;9.02;;;5.78;;
77520;SDS011;66633;47.628;19.158;2023-08-30T03:01:58;8.55;;;6.18;;
77520;SDS011;66633;47.628;19.158;2023-08-30T03:04:24;9.95;;;6.28;;
77520;SDS011;66633;47.628;19.158;2023-08-30T03:06:49;8.88;;;6.30;;
77520;SDS011;66633;47.628;19.158;2023-08-30T03:09:14;9.00;;;6.10;;
77520;SDS011;66633;47.628;19.158;2023-08-30T03:11:40;8.90;;;6.50;;
77520;SDS011;66633;47.628;19.158;2023-08-30T03:14:05;9.73;;;6.78;;
77520;SDS011;66633;47.628;19.158;2023-08-30T03:16:31;9.27;;;6.22;;
77520;SDS011;66633;47.628;19.158;2023-08-30T03:18:57;10.80;;;6.40;;
77520;SDS011;66633;47.628;19.158;2023-08-30T03:21:23;9.27;;;5.55;;
77520;SDS011;66633;47.628;19.158;2023-08-30T03:23:48;9.38;;;6.50;;
77520;SDS011;66633;47.628;19.158;2023-08-30T03:26:14;8.60;;;6.15;;
77520;SDS011;66633;47.628;19.158;2023-08-30T03:28:41;9.00;;;5.88;;
77520;SDS011;66633;47.628;19.158;2023-08-30T03:31:25;9.30;;;7.13;;
77520;SDS011;66633;47.628;19.158;2023-08-30T03:33:51;10.90;;;7.05;;
77520;SDS011;66633;47.628;19.158;2023-08-30T03:36:17;9.75;;;6.10;;
77520;SDS011;66633;47.628;19.158;2023-08-30T03:38:43;8.27;;;6.10;;
77520;SDS011;66633;47.628;19.158;2023-08-30T03:41:12;10.00;;;5.90;;
77520;SDS011;66633;47.628;19.158;2023-08-30T03:43:38;7.43;;;4.70;;
77520;SDS011;66633;47.628;19.158;2023-08-30T03:46:03;8.90;;;5.68;;
77520;SDS011;66633;47.628;19.158;2023-08-30T03:48:29;8.77;;;5.28;;
77520;SDS011;66633;47.628;19.158;2023-08-30T03:50:55;7.90;;;5.78;;
77520;SDS011;66633;47.628;19.158;2023-08-30T03:53:21;9.10;;;6.20;;
77520;SDS011;66633;47.628;19.158;2023-08-30T03:55:47;8.85;;;6.22;;
77520;SDS011;66633;47.628;19.158;2023-08-30T03:58:12;9.57;;;6.25;;
77520;SDS011;66633;47.628;19.158;2023-08-30T04:00:38;8.55;;;5.60;;
77520;SDS011;66633;47.628;19.158;2023-08-30T04:03:05;11.32;;;6.30;;
77520;SDS011;66633;47.628;19.158;2023-08-30T04:05:33;8.23;;;5.82;;
77520;SDS011;66633;47.628;19.158;2023-08-30T04:08:00;9.20;;;5.10;;
77520;SDS011;66633;47.628;19.158;2023-08-30T04:10:26;7.68;;;4.72;;
77520;SDS011;66633;47.628;19.158;2023-08-30T04:12:51;8.68;;;5.38;;
77520;SDS011;66633;47.628;19.158;2023-08-30T04:15:17;9.85;;;6.25;;
77520;SDS011;66633;47.628;19.158;2023-08-30T04:17:42;9.32;;;5.88;;
77520;SDS011;66633;47.628;19.158;2023-08-30T04:20:08;8.82;;;5.95;;
77520;SDS011;66633;47.628;19.158;2023-08-30T04:22:35;10.30;;;6.63;;
77520;SDS011;66633;47.628;19.158;2023-08-30T04:25:01;9.27;;;6.13;;
77520;SDS011;66633;47.628;19.158;2023-08-30T04:27:26;9.07;;;6.20;;
77520;SDS011;66633;47.628;19.158;2023-08-30T04:29:52;8.93;;;6.30;;
77520;SDS011;66633;47.628;19.158;2023-08-30T04:32:18;8.77;;;5.40;;
77520;SDS011;66633;47.628;19.158;2023-08-30T04:34:43;10.18;;;6.13;;
77520;SDS011;66633;47.628;19.158;2023-08-30T04:37:09;11.15;;;7.03;;
77520;SDS011;66633;47.628;19.158;2023-08-30T04:39:34;11.23;;;7.90;;
77520;SDS011;66633;47.628;19.158;2023-08-30T04:41:59;10.65;;;7.20;;
77520;SDS011;66633;47.628;19.158;2023-08-30T04:44:25;11.25;;;7.80;;
77520;SDS011;66633;47.628;19.158;2023-08-30T04:46:53;13.10;;;8.07;;
77520;SDS011;66633;47.628;19.158;2023-08-30T04:49:19;12.18;;;7.45;;
77520;SDS011;66633;47.628;19.158;2023-08-30T04:51:44;12.02;;;8.15;;
77520;SDS011;66633;47.628;19.158;2023-08-30T04:54:10;9.75;;;6.97;;
77520;SDS011;66633;47.628;19.158;2023-08-30T04:56:35;11.25;;;7.80;;
77520;SDS011;66633;47.628;19.158;2023-08-30T04:59:01;10.85;;;7.45;;
77520;SDS011;66633;47.628;19.158;2023-08-30T05:01:29;10.30;;;8.05;;
77520;SDS011;66633;47.628;19.158;2023-08-30T05:03:54;11.43;;;7.40;;
77520;SDS011;66633;47.628;19.158;2023-08-30T05:06:20;9.10;;;6.85;;
77520;SDS011;66633;47.628;19.158;2023-08-30T05:08:45;10.55;;;7.28;;
77520;SDS011;66633;47.628;19.158;2023-08-30T05:11:11;10.63;;;7.70;;
77520;SDS011;66633;47.628;19.158;2023-08-30T05:13:36;10.25;;;7.40;;
77520;SDS011;66633;47.628;19.158;2023-08-30T05:16:02;10.63;;;7.72;;
77520;SDS011;66633;47.628;19.158;2023-08-30T05:18:28;10.50;;;7.80;;
77520;SDS011;66633;47.628;19.158;2023-08-30T05:20:53;12.27;;;7.97;;
77520;SDS011;66633;47.628;19.158;2023-08-30T05:23:19;10.55;;;7.88;;
77520;SDS011;66633;47.628;19.158;2023-08-30T05:25:44;12.18;;;8.23;;
77520;SDS011;66633;47.628;19.158;2023-08-30T05:28:10;11.98;;;8.20;;
77520;SDS011;66633;47.628;19.158;2023-08-30T05:30:35;10.27;;;7.97;;
77520;SDS011;66633;47.628;19.158;2023-08-30T05:33:00;11.95;;;8.27;;
77520;SDS011;66633;47.628;19.158;2023-08-30T05:35:26;10.20;;;7.50;;
77520;SDS011;66633;47.628;19.158;2023-08-30T05:37:51;11.18;;;7.85;;
77520;SDS011;66633;47.628;19.158;2023-08-30T05:40:17;11.48;;;8.45;;
77520;SDS011;66633;47.628;19.158;2023-08-30T05:42:43;11.50;;;8.38;;
77520;SDS011;66633;47.628;19.158;2023-08-30T05:45:08;11.85;;;8.40;;
77520;SDS011;66633;47.628;19.158;2023-08-30T05:47:34;11.27;;;8.10;;
77520;SDS011;66633;47.628;19.158;2023-08-30T05:49:59;11.70;;;7.82;;
77520;SDS011;66633;47.628;19.158;2023-08-30T05:52:25;12.57;;;8.43;;
77520;SDS011;66633;47.628;19.158;2023-08-30T05:54:50;13.13;;;9.63;;
77520;SDS011;66633;47.628;19.158;2023-08-30T05:57:16;13.90;;;8.95;;
77520;SDS011;66633;47.628;19.158;2023-08-30T05:59:41;12.35;;;8.88;;
77520;SDS011;66633;47.628;19.158;2023-08-30T06:02:08;11.23;;;8.35;;
77520;SDS011;66633;47.628;19.158;2023-08-30T06:04:39;12.00;;;9.10;;
77520;SDS011;66633;47.628;19.158;2023-08-30T06:07:04;11.20;;;7.57;;
77520;SDS011;66633;47.628;19.158;2023-08-30T06:09:30;10.88;;;7.07;;
77520;SDS011;66633;47.628;19.158;2023-08-30T06:11:55;12.38;;;8.80;;
77520;SDS011;66633;47.628;19.158;2023-08-30T06:14:21;12.07;;;8.25;;
77520;SDS011;66633;47.628;19.158;2023-08-30T06:16:46;11.38;;;8.52;;
77520;SDS011;66633;47.628;19.158;2023-08-30T06:19:12;12.02;;;8.80;;
77520;SDS011;66633;47.628;19.158;2023-08-30T06:21:37;12.35;;;8.55;;
77520;SDS011;66633;47.628;19.158;2023-08-30T06:24:03;12.80;;;8.93;;
77520;SDS011;66633;47.628;19.158;2023-08-30T06:26:28;13.05;;;8.73;;
77520;SDS011;66633;47.628;19.158;2023-08-30T06:28:55;12.13;;;9.25;;
77520;SDS011;66633;47.628;19.158;2023-08-30T06:31:20;13.07;;;8.70;;
77520;SDS011;66633;47.628;19.158;2023-08-30T06:33:45;9.88;;;7.53;;
77520;SDS011;66633;47.628;19.158;2023-08-30T06:36:12;11.18;;;8.55;;
77520;SDS011;66633;47.628;19.158;2023-08-30T06:38:40;11.95;;;8.05;;
77520;SDS011;66633;47.628;19.158;2023-08-30T06:41:06;12.98;;;9.27;;
77520;SDS011;66633;47.628;19.158;2023-08-30T06:43:31;13.70;;;9.40;;
77520;SDS011;66633;47.628;19.158;2023-08-30T06:45:57;14.25;;;8.90;;
77520;SDS011;66633;47.628;19.158;2023-08-30T06:48:24;11.80;;;8.80;;
77520;SDS011;66633;47.628;19.158;2023-08-30T06:50:49;11.43;;;7.88;;
77520;SDS011;66633;47.628;19.158;2023-08-30T06:53:14;11.75;;;7.85;;
77520;SDS011;66633;47.628;19.158;2023-08-30T06:55:40;11.98;;;8.32;;
77520;SDS011;66633;47.628;19.158;2023-08-30T06:58:05;13.13;;;8.63;;
77520;SDS011;66633;47.628;19.158;2023-08-30T07:00:31;13.73;;;9.52;;
77520;SDS011;66633;47.628;19.158;2023-08-30T07:02:56;11.25;;;7.93;;
77520;SDS011;66633;47.628;19.158;2023-08-30T07:05:22;13.18;;;8.38;;
77520;SDS011;66633;47.628;19.158;2023-08-30T07:07:48;12.90;;;8.55;;
77520;SDS011;66633;47.628;19.158;2023-08-30T07:10:13;12.85;;;8.23;;
77520;SDS011;66633;47.628;19.158;2023-08-30T07:12:39;12.80;;;8.63;;
77520;SDS011;66633;47.628;19.158;2023-08-30T07:15:04;13.45;;;8.30;;
77520;SDS011;66633;47.628;19.158;2023-08-30T07:17:30;12.88;;;8.75;;
77520;SDS011;66633;47.628;19.158;2023-08-30T07:19:55;13.02;;;8.57;;
77520;SDS011;66633;47.628;19.158;2023-08-30T07:22:21;14.32;;;10.23;;
77520;SDS011;66633;47.628;19.158;2023-08-30T07:24:46;12.18;;;9.10;;
77520;SDS011;66633;47.628;19.158;2023-08-30T07:27:12;14.57;;;9.57;;
77520;SDS011;66633;47.628;19.158;2023-08-30T07:29:40;12.82;;;8.38;;
77520;SDS011;66633;47.628;19.158;2023-08-30T07:32:06;13.35;;;9.65;;
77520;SDS011;66633;47.628;19.158;2023-08-30T07:34:34;14.85;;;8.30;;
77520;SDS011;66633;47.628;19.158;2023-08-30T07:37:00;16.83;;;10.43;;
77520;SDS011;66633;47.628;19.158;2023-08-30T07:39:26;13.60;;;9.13;;
77520;SDS011;66633;47.628;19.158;2023-08-30T07:41:51;15.65;;;10.52;;
77520;SDS011;66633;47.628;19.158;2023-08-30T07:44:17;15.00;;;10.95;;
77520;SDS011;66633;47.628;19.158;2023-08-30T07:46:44;13.40;;;8.50;;
77520;SDS011;66633;47.628;19.158;2023-08-30T07:49:10;12.25;;;8.57;;
77520;SDS011;66633;47.628;19.158;2023-08-30T07:51:35;12.50;;;9.05;;
77520;SDS011;66633;47.628;19.158;2023-08-30T07:54:00;11.65;;;8.63;;
77520;SDS011;66633;47.628;19.158;2023-08-30T07:56:26;11.45;;;9.02;;
77520;SDS011;66633;47.628;19.158;2023-08-30T07:58:52;13.63;;;9.02;;
77520;SDS011;66633;47.628;19.158;2023-08-30T08:01:18;13.30;;;8.57;;
77520;SDS011;66633;47.628;19.158;2023-08-30T08:03:44;11.35;;;8.70;;
77520;SDS011;66633;47.628;19.158;2023-08-30T08:06:09;12.15;;;8.68;;
77520;SDS011;66633;47.628;19.158;2023-08-30T08:08:35;13.00;;;8.88;;
77520;SDS011;66633;47.628;19.158;2023-08-30T08:11:00;10.68;;;8.52;;
77520;SDS011;66633;47.628;19.158;2023-08-30T08:13:25;13.82;;;9.15;;
77520;SDS011;66633;47.628;19.158;2023-08-30T08:15:51;10.73;;;8.30;;
77520;SDS011;66633;47.628;19.158;2023-08-30T08:18:16;13.00;;;8.40;;
77520;SDS011;66633;47.628;19.158;2023-08-30T08:20:42;11.68;;;8.07;;
77520;SDS011;66633;47.628;19.158;2023-08-30T08:23:08;10.60;;;7.70;;
77520;SDS011;66633;47.628;19.158;2023-08-30T08:25:34;10.93;;;7.38;;
77520;SDS011;66633;47.628;19.158;2023-08-30T08:27:59;11.80;;;7.35;;
77520;SDS011;66633;47.628;19.158;2023-08-30T08:30:24;10.40;;;8.48;;
77520;SDS011;66633;47.628;19.158;2023-08-30T08:32:50;10.07;;;7.20;;
77520;SDS011;66633;47.628;19.158;2023-08-30T08:35:15;10.02;;;6.72;;
77520;SDS011;66633;47.628;19.158;2023-08-30T08:37:41;11.30;;;7.03;;
77520;SDS011;66633;47.628;19.158;2023-08-30T08:40:07;9.93;;;7.22;;
77520;SDS011;66633;47.628;19.158;2023-08-30T08:42:36;10.50;;;7.22;;
77520;SDS011;66633;47.628;19.158;2023-08-30T08:45:02;8.85;;;6.45;;
77520;SDS011;66633;47.628;19.158;2023-08-30T08:47:32;10.30;;;7.05;;
77520;SDS011;66633;47.628;19.158;2023-08-30T08:52:28;13.25;;;8.80;;
77520;SDS011;66633;47.628;19.158;2023-08-30T08:54:54;12.85;;;9.25;;
77520;SDS011;66633;47.628;19.158;2023-08-30T08:57:20;15.05;;;8.95;;
77520;SDS011;66633;47.628;19.158;2023-08-30T08:59:46;11.32;;;8.55;;
77520;SDS011;66633;47.628;19.158;2023-08-30T09:02:12;11.52;;;7.97;;
77520;SDS011;66633;47.628;19.158;2023-08-30T09:04:39;11.50;;;8.80;;
77520;SDS011;66633;47.628;19.158;2023-08-30T09:07:05;11.52;;;8.32;;
77520;SDS011;66633;47.628;19.158;2023-08-30T09:09:30;12.95;;;9.05;;
77520;SDS011;66633;47.628;19.158;2023-08-30T09:11:56;13.13;;;8.98;;
77520;SDS011;66633;47.628;19.158;2023-08-30T09:14:21;12.50;;;9.05;;
77520;SDS011;66633;47.628;19.158;2023-08-30T09:17:20;14.55;;;10.10;;
77520;SDS011;66633;47.628;19.158;2023-08-30T09:19:39;14.70;;;9.73;;
77520;SDS011;66633;47.628;19.158;2023-08-30T09:22:04;12.05;;;9.10;;
77520;SDS011;66633;47.628;19.158;2023-08-30T09:24:39;13.25;;;9.02;;
77520;SDS011;66633;47.628;19.158;2023-08-30T09:27:05;12.98;;;9.52;;
77520;SDS011;66633;47.628;19.158;2023-08-30T09:29:31;12.27;;;8.52;;
77520;SDS011;66633;47.628;19.158;2023-08-30T09:31:56;11.07;;;8.35;;
77520;SDS011;66633;47.628;19.158;2023-08-30T09:34:25;11.95;;;8.50;;
77520;SDS011;66633;47.628;19.158;2023-08-30T09:36:51;11.10;;;7.57;;
77520;SDS011;66633;47.628;19.158;2023-08-30T09:39:17;13.07;;;8.52;;
77520;SDS011;66633;47.628;19.158;2023-08-30T09:41:49;11.52;;;9.23;;
77520;SDS011;66633;47.628;19.158;2023-08-30T09:44:19;11.50;;;8.68;;
77520;SDS011;66633;47.628;19.158;2023-08-30T09:46:47;15.27;;;11.48;;
77520;SDS011;66633;47.628;19.158;2023-08-30T09:49:17;13.15;;;9.80;;
77520;SDS011;66633;47.628;19.158;2023-08-30T09:51:44;14.35;;;10.32;;
77520;SDS011;66633;47.628;19.158;2023-08-30T09:54:16;13.68;;;10.15;;
77520;SDS011;66633;47.628;19.158;2023-08-30T09:56:44;13.55;;;10.10;;
77520;SDS011;66633;47.628;19.158;2023-08-30T10:01:41;14.15;;;9.82;;
77520;SDS011;66633;47.628;19.158;2023-08-30T10:04:08;14.13;;;9.95;;
77520;SDS011;66633;47.628;19.158;2023-08-30T10:06:35;12.13;;;9.02;;
77520;SDS011;66633;47.628;19.158;2023-08-30T10:09:04;12.85;;;10.05;;
77520;SDS011;66633;47.628;19.158;2023-08-30T10:11:34;13.55;;;9.73;;
77520;SDS011;66633;47.628;19.158;2023-08-30T10:14:02;13.27;;;9.45;;
77520;SDS011;66633;47.628;19.158;2023-08-30T10:16:30;13.68;;;9.85;;
77520;SDS011;66633;47.628;19.158;2023-08-30T10:19:03;12.98;;;9.25;;
77520;SDS011;66633;47.628;19.158;2023-08-30T10:21:34;11.82;;;8.70;;
77520;SDS011;66633;47.628;19.158;2023-08-30T10:24:01;12.20;;;8.77;;
77520;SDS011;66633;47.628;19.158;2023-08-30T10:26:28;11.73;;;8.80;;
77520;SDS011;66633;47.628;19.158;2023-08-30T10:28:57;13.40;;;8.82;;
77520;SDS011;66633;47.628;19.158;2023-08-30T10:31:24;12.35;;;9.35;;
77520;SDS011;66633;47.628;19.158;2023-08-30T10:33:52;13.02;;;9.15;;
77520;SDS011;66633;47.628;19.158;2023-08-30T10:36:22;13.15;;;8.48;;
77520;SDS011;66633;47.628;19.158;2023-08-30T10:38:52;11.35;;;8.05;;
77520;SDS011;66633;47.628;19.158;2023-08-30T10:41:22;12.13;;;8.68;;
77520;SDS011;66633;47.628;19.158;2023-08-30T10:43:49;12.27;;;8.07;;
77520;SDS011;66633;47.628;19.158;2023-08-30T10:46:16;14.35;;;8.57;;
77520;SDS011;66633;47.628;19.158;2023-08-30T10:48:42;13.77;;;8.30;;
77520;SDS011;66633;47.628;19.158;2023-08-30T10:51:21;11.07;;;7.90;;
77520;SDS011;66633;47.628;19.158;2023-08-30T10:54:00;11.15;;;7.45;;
77520;SDS011;66633;47.628;19.158;2023-08-30T10:56:31;11.85;;;7.93;;
77520;SDS011;66633;47.628;19.158;2023-08-30T10:59:01;10.70;;;7.78;;
77520;SDS011;66633;47.628;19.158;2023-08-30T11:01:27;12.32;;;8.13;;
77520;SDS011;66633;47.628;19.158;2023-08-30T11:03:54;10.63;;;7.32;;
77520;SDS011;66633;47.628;19.158;2023-08-30T11:06:20;11.95;;;7.40;;
77520;SDS011;66633;47.628;19.158;2023-08-30T11:08:47;11.13;;;7.80;;
77520;SDS011;66633;47.628;19.158;2023-08-30T11:11:13;11.70;;;7.82;;
77520;SDS011;66633;47.628;19.158;2023-08-30T11:13:39;11.88;;;7.40;;
77520;SDS011;66633;47.628;19.158;2023-08-30T11:16:05;11.30;;;8.00;;
77520;SDS011;66633;47.628;19.158;2023-08-30T11:18:30;11.13;;;7.47;;
77520;SDS011;66633;47.628;19.158;2023-08-30T11:21:01;12.77;;;8.10;;
77520;SDS011;66633;47.628;19.158;2023-08-30T11:23:27;12.55;;;7.38;;
77520;SDS011;66633;47.628;19.158;2023-08-30T11:25:53;11.85;;;7.57;;
77520;SDS011;66633;47.628;19.158;2023-08-30T11:28:22;10.68;;;7.53;;
77520;SDS011;66633;47.628;19.158;2023-08-30T11:30:48;10.50;;;7.68;;
77520;SDS011;66633;47.628;19.158;2023-08-30T11:33:16;10.63;;;7.25;;
77520;SDS011;66633;47.628;19.158;2023-08-30T11:35:43;10.48;;;6.72;;
77520;SDS011;66633;47.628;19.158;2023-08-30T11:38:10;10.15;;;7.18;;
77520;SDS011;66633;47.628;19.158;2023-08-30T11:40:35;9.90;;;7.40;;
77520;SDS011;66633;47.628;19.158;2023-08-30T11:43:02;10.27;;;7.38;;
77520;SDS011;66633;47.628;19.158;2023-08-30T11:45:28;9.95;;;7.18;;
77520;SDS011;66633;47.628;19.158;2023-08-30T11:47:58;10.05;;;7.28;;
77520;SDS011;66633;47.628;19.158;2023-08-30T11:50:25;11.93;;;6.95;;
77520;SDS011;66633;47.628;19.158;2023-08-30T11:52:51;11.77;;;7.63;;
77520;SDS011;66633;47.628;19.158;2023-08-30T11:55:17;9.25;;;6.40;;
77520;SDS011;66633;47.628;19.158;2023-08-30T11:57:43;11.80;;;6.35;;
77520;SDS011;66633;47.628;19.158;2023-08-30T12:00:09;10.82;;;6.07;;
77520;SDS011;66633;47.628;19.158;2023-08-30T12:02:36;9.57;;;7.00;;
77520;SDS011;66633;47.628;19.158;2023-08-30T12:05:01;9.93;;;6.45;;
77520;SDS011;66633;47.628;19.158;2023-08-30T12:07:27;10.13;;;6.93;;
77520;SDS011;66633;47.628;19.158;2023-08-30T12:10:03;10.45;;;6.53;;
77520;SDS011;66633;47.628;19.158;2023-08-30T12:12:32;9.65;;;6.57;;
77520;SDS011;66633;47.628;19.158;2023-08-30T12:14:58;8.93;;;5.80;;
77520;SDS011;66633;47.628;19.158;2023-08-30T12:17:23;10.88;;;6.93;;
77520;SDS011;66633;47.628;19.158;2023-08-30T12:19:55;8.90;;;5.70;;
77520;SDS011;66633;47.628;19.158;2023-08-30T12:22:21;8.20;;;5.57;;
77520;SDS011;66633;47.628;19.158;2023-08-30T12:24:47;10.68;;;5.75;;
77520;SDS011;66633;47.628;19.158;2023-08-30T12:27:13;8.65;;;5.30;;
77520;SDS011;66633;47.628;19.158;2023-08-30T12:29:38;10.20;;;5.55;;
77520;SDS011;66633;47.628;19.158;2023-08-30T12:32:05;10.57;;;6.22;;
77520;SDS011;66633;47.628;19.158;2023-08-30T12:34:31;8.85;;;5.15;;
77520;SDS011;66633;47.628;19.158;2023-08-30T12:36:57;7.82;;;5.43;;
77520;SDS011;66633;47.628;19.158;2023-08-30T12:39:22;8.35;;;5.20;;
77520;SDS011;66633;47.628;19.158;2023-08-30T12:41:48;7.82;;;4.95;;
77520;SDS011;66633;47.628;19.158;2023-08-30T12:44:13;7.38;;;5.45;;
77520;SDS011;66633;47.628;19.158;2023-08-30T12:46:39;9.13;;;5.43;;
77520;SDS011;66633;47.628;19.158;2023-08-30T12:49:04;8.60;;;5.43;;
77520;SDS011;66633;47.628;19.158;2023-08-30T12:51:30;7.85;;;4.75;;
77520;SDS011;66633;47.628;19.158;2023-08-30T12:53:56;8.25;;;5.72;;
77520;SDS011;66633;47.628;19.158;2023-08-30T12:56:21;7.30;;;5.03;;
77520;SDS011;66633;47.628;19.158;2023-08-30T12:58:47;7.35;;;5.05;;
77520;SDS011;66633;47.628;19.158;2023-08-30T13:01:12;6.65;;;4.47;;
77520;SDS011;66633;47.628;19.158;2023-08-30T13:03:38;6.85;;;4.50;;
77520;SDS011;66633;47.628;19.158;2023-08-30T13:06:03;6.72;;;5.05;;
77520;SDS011;66633;47.628;19.158;2023-08-30T13:08:29;7.35;;;5.13;;
77520;SDS011;66633;47.628;19.158;2023-08-30T13:10:55;6.90;;;4.70;;
77520;SDS011;66633;47.628;19.158;2023-08-30T13:13:22;6.70;;;4.30;;
77520;SDS011;66633;47.628;19.158;2023-08-30T13:15:47;7.30;;;4.47;;
77520;SDS011;66633;47.628;19.158;2023-08-30T13:18:13;7.18;;;4.38;;
77520;SDS011;66633;47.628;19.158;2023-08-30T13:20:40;6.22;;;3.90;;
77520;SDS011;66633;47.628;19.158;2023-08-30T13:23:07;7.25;;;4.43;;
77520;SDS011;66633;47.628;19.158;2023-08-30T13:25:32;7.32;;;4.80;;
77520;SDS011;66633;47.628;19.158;2023-08-30T13:27:58;7.47;;;4.25;;
77520;SDS011;66633;47.628;19.158;2023-08-30T13:30:23;7.53;;;4.78;;
77520;SDS011;66633;47.628;19.158;2023-08-30T13:32:49;8.65;;;5.68;;
77520;SDS011;66633;47.628;19.158;2023-08-30T13:35:14;7.82;;;5.10;;
77520;SDS011;66633;47.628;19.158;2023-08-30T13:37:40;8.00;;;5.50;;
77520;SDS011;66633;47.628;19.158;2023-08-30T13:40:06;6.78;;;4.80;;
77520;SDS011;66633;47.628;19.158;2023-08-30T13:42:33;6.82;;;4.75;;
77520;SDS011;66633;47.628;19.158;2023-08-30T13:44:58;7.15;;;4.80;;
77520;SDS011;66633;47.628;19.158;2023-08-30T13:47:24;9.55;;;5.47;;
77520;SDS011;66633;47.628;19.158;2023-08-30T13:49:50;6.88;;;4.57;;
77520;SDS011;66633;47.628;19.158;2023-08-30T13:52:16;7.50;;;5.40;;
77520;SDS011;66633;47.628;19.158;2023-08-30T13:54:42;7.20;;;5.22;;
77520;SDS011;66633;47.628;19.158;2023-08-30T13:57:08;6.47;;;4.80;;
77520;SDS011;66633;47.628;19.158;2023-08-30T13:59:34;5.93;;;4.00;;
77520;SDS011;66633;47.628;19.158;2023-08-30T14:02:01;6.47;;;4.80;;
77520;SDS011;66633;47.628;19.158;2023-08-30T14:04:29;6.88;;;4.55;;
77520;SDS011;66633;47.628;19.158;2023-08-30T14:06:57;6.05;;;3.70;;
77520;SDS011;66633;47.628;19.158;2023-08-30T14:09:23;6.15;;;3.40;;
77520;SDS011;66633;47.628;19.158;2023-08-30T14:11:49;7.55;;;3.95;;
77520;SDS011;66633;47.628;19.158;2023-08-30T14:14:14;6.63;;;3.67;;
77520;SDS011;66633;47.628;19.158;2023-08-30T14:16:40;5.70;;;3.70;;
77520;SDS011;66633;47.628;19.158;2023-08-30T14:19:06;6.20;;;3.30;;
77520;SDS011;66633;47.628;19.158;2023-08-30T14:21:32;6.20;;;3.15;;
77520;SDS011;66633;47.628;19.158;2023-08-30T14:23:58;5.97;;;3.38;;
77520;SDS011;66633;47.628;19.158;2023-08-30T14:26:25;5.93;;;3.20;;
77520;SDS011;66633;47.628;19.158;2023-08-30T14:28:51;5.45;;;3.35;;
77520;SDS011;66633;47.628;19.158;2023-08-30T14:31:17;7.70;;;3.55;;